createdAt,value
2022-12-03T00:01:20.405Z,19.80
2022-12-03T00:04:22.918Z,18.40
2022-12-03T00:07:25.223Z,19.52
2022-12-03T00:10:27.830Z,18.92
2022-12-03T00:13:30.134Z,19.03
2022-12-03T00:16:32.710Z,17.48
2022-12-03T00:19:34.977Z,18.35
2022-12-03T00:22:39.606Z,18.33
2022-12-03T00:25:41.829Z,17.05
2022-12-03T00:28:45.549Z,17.90
2022-12-03T00:31:48.807Z,18.10
2022-12-03T00:34:51.691Z,18.27
2022-12-03T00:37:54.925Z,18.95
2022-12-03T00:40:57.644Z,19.33
2022-12-03T00:43:59.864Z,18.50
2022-12-03T00:47:02.606Z,17.55
2022-12-03T00:50:06.170Z,16.70
2022-12-03T00:53:08.721Z,17.73
2022-12-03T00:56:11.108Z,17.67
2022-12-03T00:59:13.734Z,17.13
2022-12-03T01:02:16.254Z,18.92
2022-12-03T01:05:20.023Z,18.12
2022-12-03T01:08:22.344Z,19.62
2022-12-03T01:11:41.231Z,18.25
2022-12-03T01:14:44.589Z,17.07
2022-12-03T01:17:47.150Z,16.75
2022-12-03T01:20:49.440Z,17.37
2022-12-03T01:23:52.040Z,17.02
2022-12-03T01:26:56.041Z,18.48
2022-12-03T01:29:58.618Z,17.40
2022-12-03T01:33:00.851Z,17.92
2022-12-03T01:36:03.560Z,18.40
2022-12-03T01:39:05.856Z,18.58
2022-12-03T01:42:11.900Z,17.27
2022-12-03T01:45:22.695Z,18.53
2022-12-03T01:48:25.325Z,17.75
2022-12-03T01:51:27.606Z,19.33
2022-12-03T01:54:42.272Z,17.90
2022-12-03T01:57:51.559Z,18.33
2022-12-03T02:00:54.688Z,19.07
2022-12-03T02:03:57.874Z,16.23
2022-12-03T02:07:20.583Z,17.98
2022-12-03T02:10:30.160Z,18.17
2022-12-03T02:13:33.136Z,19.85
2022-12-03T02:16:37.603Z,17.67
2022-12-03T02:19:40.315Z,18.37
2022-12-03T02:22:57.951Z,17.70
2022-12-03T02:26:00.715Z,20.15
2022-12-03T02:29:03.938Z,20.70
2022-12-03T02:32:06.595Z,18.97
2022-12-03T02:35:21.318Z,18.42
2022-12-03T02:38:27.092Z,19.58
2022-12-03T02:41:48.267Z,19.60
2022-12-03T02:44:51.811Z,19.85
2022-12-03T02:48:02.648Z,18.53
2022-12-03T02:51:09.086Z,18.65
2022-12-03T02:54:11.470Z,16.73
2022-12-03T02:57:16.336Z,20.37
2022-12-03T03:00:20.182Z,20.12
2022-12-03T03:03:24.658Z,19.80
2022-12-03T03:06:27.089Z,18.42
2022-12-03T03:09:29.798Z,17.40
2022-12-03T03:12:36.182Z,18.83
2022-12-03T03:15:42.503Z,17.42
2022-12-03T03:18:44.969Z,18.13
2022-12-03T03:21:47.569Z,16.70
2022-12-03T03:24:49.835Z,19.73
2022-12-03T03:27:52.411Z,18.67
2022-12-03T03:30:55.396Z,17.37
2022-12-03T03:33:58.185Z,17.30
2022-12-03T03:37:00.476Z,17.15
2022-12-03T03:40:03.611Z,19.37
2022-12-03T03:43:06.799Z,17.00
2022-12-03T03:46:10.663Z,19.70
2022-12-03T03:49:14.054Z,17.50
2022-12-03T03:52:18.492Z,17.33
2022-12-03T03:55:20.936Z,19.30
2022-12-03T03:58:23.508Z,19.87
2022-12-03T04:01:26.947Z,17.27
2022-12-03T04:04:33.338Z,17.20
2022-12-03T04:07:35.889Z,17.00
2022-12-03T04:10:57.113Z,18.85
2022-12-03T04:13:59.343Z,18.73
2022-12-03T04:17:01.962Z,17.45
2022-12-03T04:20:04.843Z,19.17
2022-12-03T04:23:08.401Z,18.27
2022-12-03T04:26:29.258Z,20.52
2022-12-03T04:29:31.798Z,18.50
2022-12-03T04:32:52.498Z,18.40
2022-12-03T04:35:55.160Z,17.03
2022-12-03T04:38:57.522Z,19.55
2022-12-03T04:42:00.139Z,18.23
2022-12-03T04:45:02.427Z,18.65
2022-12-03T04:48:05.174Z,17.20
2022-12-03T04:51:07.422Z,18.47
2022-12-03T04:54:09.977Z,19.67
2022-12-03T04:57:12.754Z,18.60
2022-12-03T05:00:15.908Z,21.35
2022-12-03T05:03:18.254Z,20.33
2022-12-03T05:06:20.796Z,22.47
2022-12-03T05:09:23.161Z,19.65
2022-12-03T05:12:25.680Z,20.37
2022-12-03T05:15:27.913Z,18.27
2022-12-03T05:18:30.454Z,20.30
2022-12-03T05:21:33.052Z,21.17
2022-12-03T05:24:35.579Z,18.10
2022-12-03T05:27:37.850Z,18.98
2022-12-03T05:30:40.548Z,19.75
2022-12-03T05:33:44.522Z,19.58
2022-12-03T05:36:47.307Z,17.00
2022-12-03T05:39:49.573Z,20.35
2022-12-03T05:42:55.002Z,17.92
2022-12-03T05:45:57.313Z,17.75
2022-12-03T05:49:05.359Z,19.60
2022-12-03T05:52:07.594Z,17.80
2022-12-03T05:55:11.569Z,18.87
2022-12-03T05:58:14.004Z,18.33
2022-12-03T06:01:16.647Z,18.83
2022-12-03T06:04:19.137Z,18.08
2022-12-03T06:07:21.400Z,18.90
2022-12-03T06:10:25.061Z,18.60
2022-12-03T06:13:27.326Z,19.40
2022-12-03T06:16:29.936Z,17.75
2022-12-03T06:19:33.018Z,21.05
2022-12-03T06:22:35.542Z,18.23
2022-12-03T06:25:37.832Z,18.30
2022-12-03T06:28:45.587Z,18.35
2022-12-03T06:31:47.835Z,18.52
2022-12-03T06:34:53.363Z,19.17
2022-12-03T06:37:55.912Z,20.17
2022-12-03T06:40:58.442Z,18.87
2022-12-03T06:44:00.724Z,19.35
2022-12-03T06:47:03.331Z,19.35
2022-12-03T06:50:07.649Z,19.15
2022-12-03T06:53:10.165Z,19.73
2022-12-03T06:56:12.421Z,19.45
2022-12-03T06:59:14.957Z,21.45
2022-12-03T07:02:17.233Z,22.35
2022-12-03T07:05:20.038Z,20.02
2022-12-03T07:08:22.258Z,19.47
2022-12-03T07:11:39.942Z,19.50
2022-12-03T07:14:42.226Z,20.25
2022-12-03T07:17:44.757Z,20.77
2022-12-03T07:20:47.234Z,21.80
2022-12-03T07:23:49.842Z,23.20
2022-12-03T07:26:52.068Z,20.12
2022-12-03T07:29:54.623Z,20.55
2022-12-03T07:32:56.921Z,22.00
2022-12-03T07:35:59.461Z,18.92
2022-12-03T07:39:01.679Z,22.87
2022-12-03T07:42:04.321Z,20.95
2022-12-03T07:45:07.235Z,19.45
2022-12-03T07:48:09.836Z,20.67
2022-12-03T07:51:15.293Z,20.60
2022-12-03T07:54:18.155Z,20.70
2022-12-03T07:57:20.878Z,19.73
2022-12-03T08:00:23.570Z,20.33
2022-12-03T08:03:26.244Z,19.85
2022-12-03T08:06:28.508Z,21.08
2022-12-03T08:09:31.556Z,23.87
2022-12-03T08:12:40.611Z,21.65
2022-12-03T08:15:45.196Z,22.13
2022-12-03T08:18:49.343Z,21.73
2022-12-03T08:21:55.281Z,21.08
2022-12-03T08:25:02.108Z,20.23
2022-12-03T08:28:22.982Z,20.70
2022-12-03T08:31:32.866Z,22.90
2022-12-03T08:34:40.713Z,22.10
2022-12-03T08:37:43.042Z,20.12
2022-12-03T08:40:48.155Z,19.93
2022-12-03T08:43:50.379Z,21.35
2022-12-03T08:47:26.352Z,21.52
2022-12-03T08:50:40.186Z,20.77
2022-12-03T08:54:01.553Z,21.20
2022-12-03T08:57:28.991Z,20.27
2022-12-03T09:00:32.466Z,22.17
2022-12-03T09:03:34.946Z,22.27
2022-12-03T09:06:37.485Z,20.67
2022-12-03T09:09:40.258Z,21.17
2022-12-03T09:12:42.889Z,21.73
2022-12-03T09:15:45.166Z,21.52
2022-12-03T09:18:47.735Z,20.35
2022-12-03T09:21:50.172Z,21.00
2022-12-03T09:24:52.987Z,20.55
2022-12-03T09:27:55.426Z,22.20
2022-12-03T09:30:57.886Z,21.23
2022-12-03T09:34:02.540Z,19.17
2022-12-03T09:37:05.173Z,21.52
2022-12-03T09:40:08.806Z,17.62
2022-12-03T09:43:12.527Z,17.93
2022-12-03T09:46:15.037Z,19.58
2022-12-03T09:49:19.903Z,19.37
2022-12-03T09:52:28.774Z,18.52
2022-12-03T09:55:32.239Z,18.05
2022-12-03T09:58:35.040Z,17.43
2022-12-03T10:01:37.823Z,18.08
2022-12-03T10:04:40.493Z,18.00
2022-12-03T10:07:42.874Z,18.17
2022-12-03T10:10:45.549Z,18.70
2022-12-03T10:13:48.299Z,19.43
2022-12-03T10:16:51.152Z,19.50
2022-12-03T10:19:53.809Z,17.58
2022-12-03T10:22:56.534Z,18.10
2022-12-03T10:26:02.978Z,16.83
2022-12-03T10:29:13.153Z,18.93
2022-12-03T10:32:15.453Z,17.27
2022-12-03T10:35:21.745Z,16.92
2022-12-03T10:38:24.091Z,18.05
2022-12-03T10:41:29.199Z,17.02
2022-12-03T10:44:31.562Z,16.70
2022-12-03T10:47:34.240Z,16.02
2022-12-03T10:50:37.708Z,18.25
2022-12-03T10:53:41.132Z,17.35
2022-12-03T10:56:44.056Z,16.15
2022-12-03T10:59:46.600Z,16.73
2022-12-03T11:02:54.811Z,15.02
2022-12-03T11:06:00.454Z,14.18
2022-12-03T11:09:08.808Z,18.55
2022-12-03T11:12:17.572Z,17.90
2022-12-03T11:15:44.411Z,17.73
2022-12-03T11:18:49.731Z,17.87
2022-12-03T11:22:05.400Z,17.73
2022-12-03T11:25:44.701Z,15.70
2022-12-03T11:28:46.994Z,17.80
2022-12-03T11:31:49.684Z,14.57
2022-12-03T11:34:52.350Z,14.68
2022-12-03T11:37:55.207Z,14.38
2022-12-03T11:41:34.225Z,14.73
2022-12-03T11:44:36.921Z,15.80
2022-12-03T11:47:59.377Z,13.67
2022-12-03T11:51:02.156Z,14.13
2022-12-03T11:54:04.678Z,14.63
2022-12-03T11:57:26.435Z,12.73
2022-12-03T12:00:29.280Z,12.85
2022-12-03T12:03:41.831Z,13.67
2022-12-03T12:06:48.689Z,12.70
2022-12-03T12:09:55.882Z,12.80
2022-12-03T12:12:58.635Z,11.88
2022-12-03T12:16:04.221Z,13.88
2022-12-03T12:19:33.009Z,12.97
2022-12-03T12:22:35.653Z,13.10
2022-12-03T12:25:40.364Z,10.85
2022-12-03T12:28:42.959Z,12.85
2022-12-03T12:31:49.515Z,13.05
2022-12-03T12:34:59.787Z,13.03
2022-12-03T12:38:08.693Z,11.80
2022-12-03T12:41:11.487Z,11.30
2022-12-03T12:44:14.431Z,12.07
2022-12-03T12:47:17.030Z,12.75
2022-12-03T12:50:20.120Z,13.10
2022-12-03T12:53:24.840Z,12.48
2022-12-03T12:56:32.627Z,12.43
2022-12-03T12:59:35.523Z,12.88
2022-12-03T13:03:00.318Z,11.82
2022-12-03T13:06:03.688Z,12.67
2022-12-03T13:09:17.909Z,13.55
2022-12-03T13:12:23.282Z,13.43
2022-12-03T13:15:38.933Z,15.02
2022-12-03T13:18:44.995Z,13.98
2022-12-03T13:21:47.252Z,13.37
2022-12-03T13:24:51.981Z,14.40
2022-12-03T13:27:54.216Z,14.85
2022-12-03T13:31:12.747Z,13.68
2022-12-03T13:34:20.802Z,13.90
2022-12-03T13:37:26.893Z,14.00
2022-12-03T13:40:31.640Z,14.55
2022-12-03T13:43:38.752Z,13.55
2022-12-03T13:46:46.693Z,14.13
2022-12-03T13:50:00.826Z,13.95
2022-12-03T13:53:23.324Z,13.87
2022-12-03T13:56:25.874Z,13.38
2022-12-03T13:59:28.170Z,12.90
2022-12-03T14:02:30.679Z,13.07
2022-12-03T14:05:33.368Z,13.23
2022-12-03T14:08:35.650Z,13.87
2022-12-03T14:11:56.920Z,13.60
2022-12-03T14:15:04.069Z,14.02
2022-12-03T14:18:06.723Z,13.00
2022-12-03T14:21:09.014Z,13.00
2022-12-03T14:24:11.641Z,13.70
2022-12-03T14:27:13.922Z,13.10
2022-12-03T14:30:16.712Z,12.55
2022-12-03T14:33:18.937Z,13.60
2022-12-03T14:36:21.574Z,14.43
2022-12-03T14:39:23.984Z,13.90
2022-12-03T14:42:29.460Z,13.75
2022-12-03T14:45:32.008Z,13.75
2022-12-03T14:48:34.590Z,15.02
2022-12-03T14:51:36.845Z,13.95
2022-12-03T14:54:42.638Z,13.83
2022-12-03T14:57:45.355Z,14.85
2022-12-03T15:00:47.979Z,13.90
2022-12-03T15:03:50.256Z,14.40
2022-12-03T15:06:52.809Z,13.75
2022-12-03T15:09:55.441Z,14.37
2022-12-03T15:12:58.271Z,13.77
2022-12-03T15:16:00.550Z,14.48
2022-12-03T15:19:03.166Z,13.65
2022-12-03T15:22:05.419Z,14.35
2022-12-03T15:25:08.482Z,14.20
2022-12-03T15:28:10.810Z,14.35
2022-12-03T15:31:13.605Z,14.57
2022-12-03T15:34:21.808Z,14.90
2022-12-03T15:37:27.690Z,15.00
2022-12-03T15:40:29.900Z,14.17
2022-12-03T15:43:32.440Z,14.00
2022-12-03T15:46:34.827Z,13.93
2022-12-03T15:49:37.410Z,14.48
2022-12-03T15:52:40.057Z,14.45
2022-12-03T15:55:42.626Z,14.77
2022-12-03T15:58:44.923Z,14.23
2022-12-03T16:01:47.542Z,14.43
2022-12-03T16:04:50.143Z,15.50
2022-12-03T16:07:52.662Z,15.93
2022-12-03T16:10:55.353Z,16.60
2022-12-03T16:13:57.637Z,15.65
2022-12-03T16:17:00.246Z,15.23
2022-12-03T16:20:02.826Z,15.00
2022-12-03T16:23:05.594Z,14.87
2022-12-03T16:26:07.855Z,15.90
2022-12-03T16:29:10.436Z,16.45
2022-12-03T16:32:12.917Z,15.05
2022-12-03T16:35:15.598Z,15.23
2022-12-03T16:38:17.885Z,15.77
2022-12-03T16:41:22.393Z,16.30
2022-12-03T16:44:32.706Z,15.68
2022-12-03T16:47:35.496Z,15.23
2022-12-03T16:50:38.134Z,17.30
2022-12-03T16:53:40.814Z,15.77
2022-12-03T16:56:43.062Z,15.80
2022-12-03T16:59:45.658Z,16.60
2022-12-03T17:02:48.675Z,17.67
2022-12-03T17:05:51.471Z,16.12
2022-12-03T17:08:53.781Z,17.05
2022-12-03T17:11:56.318Z,17.00
2022-12-03T17:14:58.596Z,17.70
2022-12-03T17:18:03.488Z,17.35
2022-12-03T17:21:06.648Z,17.35
2022-12-03T17:24:09.326Z,17.05
2022-12-03T17:27:12.844Z,16.83
2022-12-03T17:30:15.792Z,17.40
2022-12-03T17:33:18.019Z,17.12
2022-12-03T17:36:20.536Z,17.45
2022-12-03T17:39:22.974Z,19.65
2022-12-03T17:42:25.908Z,16.90
2022-12-03T17:45:28.259Z,19.45
2022-12-03T17:48:31.407Z,20.52
2022-12-03T17:51:33.903Z,19.55
2022-12-03T17:55:01.753Z,20.83
2022-12-03T17:57:59.831Z,19.80
2022-12-03T18:01:03.371Z,19.58
2022-12-03T18:04:06.123Z,22.13
2022-12-03T18:07:08.774Z,20.75
2022-12-03T18:10:11.518Z,21.58
2022-12-03T18:13:14.083Z,21.27
2022-12-03T18:16:16.842Z,21.25
2022-12-03T18:19:19.195Z,21.33
2022-12-03T18:22:21.843Z,22.02
2022-12-03T18:25:25.923Z,22.08
2022-12-03T18:28:30.612Z,23.63
2022-12-03T18:31:33.074Z,22.62
2022-12-03T18:34:35.584Z,23.62
2022-12-03T18:37:38.487Z,22.83
2022-12-03T18:40:43.970Z,22.60
2022-12-03T18:43:46.604Z,21.37
2022-12-03T18:46:53.930Z,21.73
2022-12-03T18:49:57.515Z,22.83
2022-12-03T18:53:00.407Z,21.48
2022-12-03T18:56:03.135Z,22.67
2022-12-03T18:59:07.398Z,22.27
2022-12-03T19:02:46.099Z,21.15
2022-12-03T19:05:42.174Z,21.27
2022-12-03T19:08:45.137Z,22.33
2022-12-03T19:11:48.011Z,21.92
2022-12-03T19:14:51.107Z,19.80
2022-12-03T19:17:53.748Z,21.20
2022-12-03T19:20:56.100Z,21.17
2022-12-03T19:24:23.298Z,22.00
2022-12-03T19:27:21.218Z,21.25
2022-12-03T19:30:23.960Z,20.50
2022-12-03T19:33:28.674Z,20.85
2022-12-03T19:36:31.736Z,19.35
2022-12-03T19:39:34.093Z,21.58
2022-12-03T19:42:36.658Z,20.83
2022-12-03T19:45:38.976Z,21.80
2022-12-03T19:48:41.763Z,20.88
2022-12-03T19:51:44.341Z,21.48
2022-12-03T19:54:46.921Z,21.75
2022-12-03T19:57:49.215Z,21.42
2022-12-03T20:00:51.755Z,21.10
2022-12-03T20:03:57.727Z,20.83
2022-12-03T20:06:59.997Z,21.17
2022-12-03T20:10:02.747Z,20.30
2022-12-03T20:13:05.398Z,20.80
2022-12-03T20:16:12.570Z,20.03
2022-12-03T20:19:17.079Z,20.05
2022-12-03T20:22:19.635Z,21.12
2022-12-03T20:25:21.916Z,19.42
2022-12-03T20:28:24.615Z,19.02
2022-12-03T20:31:29.594Z,20.83
2022-12-03T20:34:34.130Z,21.55
2022-12-03T20:37:36.415Z,19.77
2022-12-03T20:40:39.119Z,19.35
2022-12-03T20:43:42.311Z,20.17
2022-12-03T20:46:44.932Z,21.27
2022-12-03T20:49:47.251Z,20.58
2022-12-03T20:53:16.245Z,21.73
2022-12-03T20:56:18.609Z,20.30
2022-12-03T20:59:21.326Z,21.70
2022-12-03T21:02:23.692Z,20.63
2022-12-03T21:05:27.040Z,21.02
2022-12-03T21:08:41.115Z,21.27
2022-12-03T21:11:44.452Z,20.77
2022-12-03T21:14:46.839Z,20.83
2022-12-03T21:17:49.471Z,20.47
2022-12-03T21:20:51.762Z,20.45
2022-12-03T21:23:54.810Z,20.52
2022-12-03T21:26:57.985Z,23.27
2022-12-03T21:30:00.562Z,23.15
2022-12-03T21:33:02.807Z,22.40
2022-12-03T21:36:06.861Z,21.80
2022-12-03T21:39:09.198Z,22.27
2022-12-03T21:42:19.393Z,22.75
2022-12-03T21:45:33.955Z,22.60
2022-12-03T21:48:36.752Z,22.70
2022-12-03T21:51:39.018Z,22.23
2022-12-03T21:54:41.665Z,22.70
2022-12-03T21:57:43.970Z,21.90
2022-12-03T22:00:46.545Z,22.35
2022-12-03T22:03:50.195Z,22.77
2022-12-03T22:06:52.481Z,24.33
2022-12-03T22:09:55.287Z,23.55
2022-12-03T22:12:57.796Z,22.25
2022-12-03T22:16:04.565Z,23.02
2022-12-03T22:19:06.803Z,22.93
2022-12-03T22:22:09.378Z,23.15
2022-12-03T22:25:11.777Z,22.50
2022-12-03T22:28:14.290Z,23.52
2022-12-03T22:31:18.399Z,22.55
2022-12-03T22:34:21.058Z,22.40
2022-12-03T22:37:23.964Z,24.35
2022-12-03T22:40:26.472Z,22.13
2022-12-03T22:43:28.818Z,23.27
2022-12-03T22:46:31.503Z,22.83
2022-12-03T22:49:33.826Z,22.87
2022-12-03T22:52:36.348Z,22.73
2022-12-03T22:55:39.112Z,22.48
2022-12-03T22:58:41.764Z,23.30
2022-12-03T23:01:44.414Z,21.80
2022-12-03T23:04:47.015Z,22.27
2022-12-03T23:07:50.673Z,21.80
2022-12-03T23:10:53.283Z,22.85
2022-12-03T23:13:55.575Z,23.15
2022-12-03T23:16:58.063Z,24.48
2022-12-03T23:20:00.339Z,23.10
2022-12-03T23:23:02.865Z,22.77
2022-12-03T23:26:07.847Z,23.45
2022-12-03T23:29:10.457Z,22.52
2022-12-03T23:32:12.738Z,24.37
2022-12-03T23:35:15.240Z,23.87
2022-12-03T23:38:17.457Z,22.77
2022-12-03T23:41:22.245Z,22.62
2022-12-03T23:44:24.995Z,21.60
2022-12-03T23:47:27.967Z,22.45
2022-12-03T23:50:31.032Z,21.57
2022-12-03T23:53:35.142Z,22.10
2022-12-03T23:56:37.581Z,23.00
2022-12-03T23:59:42.125Z,21.42
